Orbital elements of COSMOS 1275 DEB
| Launched | 3 June 1981 |
| Flight ended | – |
| Launch site | Plesetsk Missile and Space Complex, Russia |
| Owner | Commonwealth of Independent States (former USSR) |
| NORAD ID | 13470 |
| Date fetched |
Epoch osculation |
Inc. [°] |
Ecc. | RA asc node [hr] |
Arg Peri. [°] |
Mean anom [°] |
Mean motion [rev/day] |
Abs. mag |
| Date fetched |
Epoch osculation |
Inc. [°] |
Ecc. | RA asc node [hr] |
Arg Peri. [°] |
Mean anom [°] |
Mean motion [rev/day] |
Abs. mag |
| 2026 May 08 17:57 | 2026 May 05 13:11:16 | 82.8209 | 0.02368 | 14.1407 | 4.4349 | 54.8639 | 13.35269 | – |
| 2026 May 07 17:58 | 2026 May 05 13:11:16 | 82.8209 | 0.02368 | 14.1407 | 4.4349 | 54.8639 | 13.35269 | – |
| 2026 May 06 17:57 | 2026 May 05 13:11:16 | 82.8209 | 0.02368 | 14.1407 | 4.4349 | 54.8639 | 13.35269 | – |
| 2026 May 05 17:57 | 2026 May 05 13:11:16 | 82.8209 | 0.02368 | 14.1407 | 4.4349 | 54.8639 | 13.35269 | – |
| 2026 May 04 17:57 | 2026 Apr 30 07:16:26 | 82.8207 | 0.02371 | 14.3870 | 18.1092 | 54.8639 | 13.35269 | – |
| 2026 May 03 17:57 | 2026 Apr 30 07:16:26 | 82.8207 | 0.02371 | 14.3870 | 18.1092 | 54.8639 | 13.35269 | – |
| 2026 May 02 17:57 | 2026 Apr 30 07:16:26 | 82.8207 | 0.02371 | 14.3870 | 18.1092 | 54.8639 | 13.35269 | – |
| 2026 May 01 17:56 | 2026 Apr 30 07:16:26 | 82.8207 | 0.02371 | 14.3870 | 18.1092 | 54.8639 | 13.35269 | – |
| 2026 Apr 30 17:56 | 2026 Apr 30 07:16:26 | 82.8207 | 0.02371 | 14.3870 | 18.1092 | 54.8639 | 13.35269 | – |
| 2026 Apr 29 17:57 | 2026 Apr 24 07:24:14 | 82.8206 | 0.02376 | 14.6685 | 33.7002 | 54.8639 | 13.35269 | – |
| 2026 Apr 28 17:56 | 2026 Apr 24 07:24:14 | 82.8206 | 0.02376 | 14.6685 | 33.7002 | 54.8639 | 13.35269 | – |
| 2026 Apr 27 17:58 | 2026 Apr 24 07:24:14 | 82.8206 | 0.02376 | 14.6685 | 33.7002 | 54.8639 | 13.35269 | – |
| 2026 Apr 26 17:58 | 2026 Apr 24 07:24:14 | 82.8206 | 0.02376 | 14.6685 | 33.7002 | 54.8639 | 13.35269 | – |
| 2026 Apr 25 17:58 | 2026 Apr 24 07:24:14 | 82.8206 | 0.02376 | 14.6685 | 33.7002 | 54.8639 | 13.35269 | – |
| 2026 Apr 24 17:59 | 2026 Apr 24 07:24:14 | 82.8206 | 0.02376 | 14.6685 | 33.7002 | 54.8639 | 13.35269 | – |
| 2026 Apr 23 17:57 | 2026 Apr 19 06:47:36 | 82.8200 | 0.02379 | 14.9045 | 46.7393 | 54.8639 | 13.35269 | – |
| 2026 Apr 22 17:57 | 2026 Apr 19 06:47:36 | 82.8200 | 0.02379 | 14.9045 | 46.7393 | 54.8639 | 13.35269 | – |
| 2026 Apr 21 17:57 | 2026 Apr 19 06:47:36 | 82.8200 | 0.02379 | 14.9045 | 46.7393 | 54.8639 | 13.35269 | – |
| 2026 Apr 20 17:57 | 2026 Apr 19 06:47:36 | 82.8200 | 0.02379 | 14.9045 | 46.7393 | 54.8639 | 13.35269 | – |
| 2026 Apr 19 17:58 | 2026 Apr 19 06:47:36 | 82.8200 | 0.02379 | 14.9045 | 46.7393 | 54.8639 | 13.35269 | – |
| 2026 Apr 18 17:56 | 2026 Apr 13 06:52:11 | 82.8191 | 0.02383 | 15.1862 | 62.2927 | 54.8639 | 13.35269 | – |
| 2026 Apr 16 17:57 | 2026 Apr 13 06:52:11 | 82.8191 | 0.02383 | 15.1862 | 62.2927 | 54.8639 | 13.35269 | – |
| 2026 Apr 14 17:57 | 2026 Apr 13 06:52:11 | 82.8191 | 0.02383 | 15.1862 | 62.2927 | 54.8639 | 13.35269 | – |
| 2026 Apr 13 17:57 | 2026 Apr 13 06:52:11 | 82.8191 | 0.02383 | 15.1862 | 62.2927 | 54.8639 | 13.35269 | – |
| 2026 Apr 12 17:57 | 2026 Apr 08 08:14:25 | 82.8184 | 0.02386 | 15.4184 | 75.0920 | 54.8639 | 13.35269 | – |
| 2026 Apr 11 17:57 | 2026 Apr 08 08:14:25 | 82.8184 | 0.02386 | 15.4184 | 75.0920 | 54.8639 | 13.35269 | – |